createdAt,value
2018-05-10T00:00:09.044Z,10.00
2018-05-10T00:01:09.776Z,9.00
2018-05-10T00:02:10.494Z,10.00
2018-05-10T00:03:11.230Z,10.00
2018-05-10T00:04:11.952Z,9.00
2018-05-10T00:05:12.676Z,8.00
2018-05-10T00:06:13.398Z,7.00
2018-05-10T00:07:14.156Z,9.00
2018-05-10T00:08:14.888Z,10.00
2018-05-10T00:09:15.605Z,10.00
2018-05-10T00:10:16.328Z,8.00
2018-05-10T00:11:17.153Z,8.00
2018-05-10T00:12:17.800Z,8.00
2018-05-10T00:13:18.525Z,9.00
2018-05-10T00:14:19.275Z,12.00
2018-05-10T00:15:20.000Z,9.00
2018-05-10T00:16:20.724Z,8.00
2018-05-10T00:17:21.474Z,11.00
2018-05-10T00:18:22.231Z,9.00
2018-05-10T00:19:22.966Z,9.00
2018-05-10T00:20:23.700Z,9.00
2018-05-10T00:21:24.477Z,9.00
2018-05-10T00:22:25.225Z,10.00
2018-05-10T00:23:25.951Z,10.00
2018-05-10T00:24:26.818Z,9.00
2018-05-10T00:25:27.399Z,11.00
2018-05-10T00:26:28.155Z,9.00
2018-05-10T00:27:28.892Z,11.00
2018-05-10T00:28:29.648Z,9.00
2018-05-10T00:29:30.375Z,10.00
2018-05-10T00:30:31.132Z,11.00
2018-05-10T00:31:31.856Z,10.00
2018-05-10T00:32:32.579Z,8.00
2018-05-10T00:33:33.304Z,10.00
2018-05-10T00:34:34.027Z,8.00
2018-05-10T00:35:34.751Z,10.00
2018-05-10T00:36:35.513Z,9.00
2018-05-10T00:37:36.275Z,10.00
2018-05-10T00:38:37.001Z,11.00
2018-05-10T00:39:37.726Z,11.00
2018-05-10T00:40:38.451Z,10.00
2018-05-10T00:41:39.177Z,9.00
2018-05-10T00:42:39.927Z,9.00
2018-05-10T00:43:40.686Z,12.00
2018-05-10T00:44:41.411Z,8.00
2018-05-10T00:45:42.147Z,11.00
2018-05-10T00:46:42.905Z,11.00
2018-05-10T00:47:43.657Z,10.00
2018-05-10T00:48:44.379Z,9.00
2018-05-10T00:49:45.101Z,9.00
2018-05-10T00:50:45.827Z,11.00
2018-05-10T00:51:46.553Z,10.00
2018-05-10T00:52:47.276Z,9.00
2018-05-10T00:53:48.011Z,11.00
2018-05-10T00:54:48.727Z,10.00
2018-05-10T00:55:49.457Z,9.00
2018-05-10T00:56:50.172Z,10.00
2018-05-10T00:57:50.905Z,11.00
2018-05-10T00:58:51.622Z,10.00
2018-05-10T00:59:52.339Z,10.00
2018-05-10T01:00:53.054Z,10.00
2018-05-10T01:01:53.782Z,9.00
2018-05-10T01:02:54.498Z,8.00
2018-05-10T01:03:55.214Z,10.00
2018-05-10T01:04:56.055Z,10.00
2018-05-10T01:05:56.648Z,10.00
2018-05-10T01:06:57.376Z,10.00
2018-05-10T01:07:58.093Z,11.00
2018-05-10T01:08:58.811Z,10.00
2018-05-10T01:09:59.540Z,10.00
2018-05-10T01:11:00.268Z,12.00
2018-05-10T01:12:00.981Z,9.00
2018-05-10T01:13:01.711Z,12.00
2018-05-10T01:14:02.427Z,10.00
2018-05-10T01:15:03.148Z,10.00
2018-05-10T01:16:03.875Z,10.00
2018-05-10T01:17:04.591Z,10.00
2018-05-10T01:18:05.308Z,10.00
2018-05-10T01:19:06.025Z,10.00
2018-05-10T01:20:06.754Z,9.00
2018-05-10T01:21:07.483Z,10.00
2018-05-10T01:22:08.198Z,10.00
2018-05-10T01:23:08.912Z,12.00
2018-05-10T01:24:09.629Z,10.00
2018-05-10T01:25:10.344Z,12.00
2018-05-10T01:26:11.060Z,11.00
2018-05-10T01:27:11.796Z,10.00
2018-05-10T01:28:12.506Z,11.00
2018-05-10T01:29:13.221Z,9.00
2018-05-10T01:30:13.935Z,9.00
2018-05-10T01:31:14.666Z,13.00
2018-05-10T01:32:15.384Z,10.00
2018-05-10T01:33:16.101Z,11.00
2018-05-10T01:34:16.817Z,10.00
2018-05-10T01:35:17.533Z,10.00
2018-05-10T01:36:18.262Z,10.00
2018-05-10T01:37:18.980Z,10.00
2018-05-10T01:38:19.695Z,8.00
2018-05-10T01:39:20.410Z,9.00
2018-05-10T01:40:21.126Z,11.00
2018-05-10T01:41:21.844Z,10.00
2018-05-10T01:42:22.560Z,9.00
2018-05-10T01:43:23.275Z,10.00
2018-05-10T01:44:23.990Z,10.00
2018-05-10T01:45:24.704Z,11.00
2018-05-10T01:46:25.441Z,10.00
2018-05-10T01:47:26.152Z,10.00
2018-05-10T01:48:26.870Z,10.00
2018-05-10T01:49:27.586Z,10.00
2018-05-10T01:50:28.302Z,10.00
2018-05-10T01:51:29.019Z,10.00
2018-05-10T01:52:29.734Z,10.00
2018-05-10T01:53:30.464Z,10.00
2018-05-10T01:54:31.181Z,11.00
2018-05-10T01:55:31.897Z,10.00
2018-05-10T01:56:32.614Z,10.00
2018-05-10T01:57:33.328Z,12.00
2018-05-10T01:58:34.041Z,9.00
2018-05-10T01:59:34.756Z,11.00
2018-05-10T02:00:35.488Z,11.00
2018-05-10T02:01:36.206Z,11.00
2018-05-10T02:02:36.922Z,11.00
2018-05-10T02:03:37.639Z,10.00
2018-05-10T02:04:38.353Z,10.00
2018-05-10T02:05:39.073Z,11.00
2018-05-10T02:06:39.800Z,12.00
2018-05-10T02:07:40.516Z,11.00
2018-05-10T02:08:41.235Z,10.00
2018-05-10T02:09:41.947Z,11.00
2018-05-10T02:10:42.679Z,10.00
2018-05-10T02:11:43.395Z,8.00
2018-05-10T02:12:44.111Z,12.00
2018-05-10T02:13:44.831Z,10.00
2018-05-10T02:14:45.554Z,12.00
2018-05-10T02:15:46.268Z,10.00
2018-05-10T02:16:46.984Z,10.00
2018-05-10T02:17:47.698Z,13.00
2018-05-10T02:18:48.411Z,9.00
2018-05-10T02:19:49.127Z,11.00
2018-05-10T02:20:49.849Z,10.00
2018-05-10T02:21:50.579Z,9.00
2018-05-10T02:22:51.306Z,12.00
2018-05-10T02:23:52.023Z,11.00
2018-05-10T02:24:52.739Z,12.00
2018-05-10T02:25:53.454Z,13.00
2018-05-10T02:26:54.169Z,11.00
2018-05-10T02:27:54.885Z,11.00
2018-05-10T02:28:55.598Z,12.00
2018-05-10T02:29:56.313Z,11.00
2018-05-10T02:30:57.029Z,14.00
2018-05-10T02:31:57.747Z,12.00
2018-05-10T02:32:58.472Z,12.00
2018-05-10T02:33:59.193Z,12.00
2018-05-10T02:34:59.924Z,11.00
2018-05-10T02:36:00.636Z,13.00
2018-05-10T02:37:01.353Z,17.00
2018-05-10T02:38:02.116Z,15.00
2018-05-10T02:39:02.798Z,15.00
2018-05-10T02:40:03.596Z,14.00
2018-05-10T02:41:04.251Z,17.00
2018-05-10T02:42:04.968Z,16.00
2018-05-10T02:43:05.686Z,16.00
2018-05-10T02:44:06.402Z,18.00
2018-05-10T02:45:07.224Z,16.00
2018-05-10T02:46:07.831Z,18.00
2018-05-10T02:47:08.547Z,19.00
2018-05-10T02:48:09.262Z,23.00
2018-05-10T02:49:09.978Z,21.00
2018-05-10T02:50:10.692Z,21.00
2018-05-10T02:51:11.414Z,23.00
2018-05-10T02:52:12.136Z,26.00
2018-05-10T02:53:12.852Z,25.00
2018-05-10T02:54:13.566Z,29.00
2018-05-10T02:55:14.281Z,32.00
2018-05-10T02:56:15.013Z,29.00
2018-05-10T02:57:15.728Z,31.00
2018-05-10T02:58:16.457Z,28.00
2018-05-10T02:59:17.173Z,28.00
2018-05-10T03:00:17.887Z,33.00
2018-05-10T03:01:18.602Z,31.00
2018-05-10T03:02:19.318Z,32.00
2018-05-10T03:03:20.032Z,33.00
2018-05-10T03:04:20.747Z,33.00
2018-05-10T03:05:21.463Z,35.00
2018-05-10T03:06:22.178Z,34.00
2018-05-10T03:07:22.896Z,31.00
2018-05-10T03:08:23.608Z,33.00
2018-05-10T03:09:24.326Z,38.00
2018-05-10T03:10:25.039Z,38.00
2018-05-10T03:11:25.752Z,37.00
2018-05-10T03:12:26.466Z,43.00
2018-05-10T03:13:27.195Z,42.00
2018-05-10T03:14:27.911Z,43.00
2018-05-10T03:15:28.627Z,44.00
2018-05-10T03:16:29.359Z,46.00
2018-05-10T03:17:30.075Z,51.00
2018-05-10T03:18:30.790Z,53.00
2018-05-10T03:19:31.505Z,49.00
2018-05-10T03:20:32.219Z,47.00
2018-05-10T03:21:32.950Z,50.00
2018-05-10T03:22:33.667Z,55.00
2018-05-10T03:23:34.397Z,55.00
2018-05-10T03:24:35.115Z,55.00
2018-05-10T03:25:35.833Z,54.00
2018-05-10T03:26:36.550Z,55.00
2018-05-10T03:27:37.273Z,59.00
2018-05-10T03:28:37.998Z,52.00
2018-05-10T03:29:38.715Z,53.00
2018-05-10T03:30:39.444Z,55.00
2018-05-10T03:31:40.161Z,59.00
2018-05-10T03:32:40.897Z,66.00
2018-05-10T03:33:41.609Z,71.00
2018-05-10T03:34:42.340Z,64.00
2018-05-10T03:35:43.057Z,68.00
2018-05-10T03:36:43.772Z,64.00
2018-05-10T03:37:44.488Z,71.00
2018-05-10T03:38:45.206Z,73.00
2018-05-10T03:39:45.921Z,73.00
2018-05-10T03:40:46.652Z,72.00
2018-05-10T03:41:47.371Z,78.00
2018-05-10T03:42:48.089Z,67.00
2018-05-10T03:43:48.809Z,78.00
2018-05-10T03:44:49.525Z,75.00
2018-05-10T03:45:50.243Z,84.00
2018-05-10T03:46:50.962Z,85.00
2018-05-10T03:47:51.678Z,81.00
2018-05-10T03:48:52.397Z,81.00
2018-05-10T03:49:53.130Z,77.00
2018-05-10T03:50:53.860Z,83.00
2018-05-10T03:51:54.577Z,79.00
2018-05-10T03:52:55.297Z,75.00
2018-05-10T03:53:56.053Z,91.00
2018-05-10T03:54:56.773Z,78.00
2018-05-10T03:55:57.505Z,83.00
2018-05-10T03:56:58.238Z,82.00
2018-05-10T03:57:58.957Z,83.00
2018-05-10T03:58:59.675Z,81.00
2018-05-10T04:00:00.394Z,94.00
2018-05-10T04:01:01.127Z,83.00
2018-05-10T04:02:01.848Z,89.00
2018-05-10T04:03:02.566Z,81.00
2018-05-10T04:04:03.286Z,88.00
2018-05-10T04:05:04.007Z,90.00
2018-05-10T04:06:04.809Z,103.00
2018-05-10T04:07:05.460Z,99.00
2018-05-10T04:08:06.178Z,79.00
2018-05-10T04:09:06.895Z,90.00
2018-05-10T04:10:07.614Z,93.00
2018-05-10T04:11:08.333Z,84.00
2018-05-10T04:12:09.051Z,80.00
2018-05-10T04:13:09.769Z,95.00
2018-05-10T04:14:10.488Z,90.00
2018-05-10T04:15:11.221Z,89.00
2018-05-10T04:16:11.939Z,91.00
2018-05-10T04:17:12.659Z,82.00
2018-05-10T04:18:13.378Z,85.00
2018-05-10T04:19:14.095Z,89.00
2018-05-10T04:20:14.815Z,79.00
2018-05-10T04:21:15.536Z,91.00
2018-05-10T04:22:16.255Z,85.00
2018-05-10T04:23:16.987Z,78.00
2018-05-10T04:24:17.707Z,75.00
2018-05-10T04:25:18.440Z,82.00
2018-05-10T04:26:19.160Z,76.00
2018-05-10T04:27:19.882Z,70.00
2018-05-10T04:28:20.601Z,81.00
2018-05-10T04:29:21.320Z,82.00
2018-05-10T04:30:22.044Z,77.00
2018-05-10T04:31:22.764Z,73.00
2018-05-10T04:32:23.498Z,75.00
2018-05-10T04:33:24.233Z,77.00
2018-05-10T04:34:24.954Z,79.00
2018-05-10T04:35:25.676Z,73.00
2018-05-10T04:36:26.411Z,65.00
2018-05-10T04:37:27.132Z,66.00
2018-05-10T04:38:27.852Z,67.00
2018-05-10T04:39:28.573Z,67.00
2018-05-10T04:40:29.309Z,65.00
2018-05-10T04:41:30.030Z,68.00
2018-05-10T04:42:30.750Z,62.00
2018-05-10T04:43:31.469Z,60.00
2018-05-10T04:44:32.204Z,63.00
2018-05-10T04:45:32.926Z,64.00
2018-05-10T04:46:33.645Z,57.00
2018-05-10T04:47:34.366Z,56.00
2018-05-10T04:48:35.087Z,60.00
2018-05-10T04:49:35.809Z,50.00
2018-05-10T04:50:36.528Z,56.00
2018-05-10T04:51:37.250Z,55.00
2018-05-10T04:52:37.984Z,54.00
2018-05-10T04:53:38.742Z,52.00
2018-05-10T04:54:39.422Z,57.00
2018-05-10T04:55:40.142Z,50.00
2018-05-10T04:56:40.870Z,50.00
2018-05-10T04:57:41.592Z,53.00
2018-05-10T04:58:42.332Z,54.00
2018-05-10T04:59:43.045Z,52.00
2018-05-10T05:00:43.766Z,50.00
2018-05-10T05:01:44.486Z,52.00
2018-05-10T05:02:45.204Z,52.00
2018-05-10T05:03:45.923Z,51.00
2018-05-10T05:04:46.641Z,48.00
2018-05-10T05:05:47.379Z,47.00
2018-05-10T05:06:48.097Z,50.00
2018-05-10T05:07:48.817Z,50.00
2018-05-10T05:08:49.561Z,51.00
2018-05-10T05:09:50.274Z,47.00
2018-05-10T05:10:50.995Z,46.00
2018-05-10T05:11:51.759Z,42.00
2018-05-10T05:12:52.441Z,46.00
2018-05-10T05:13:53.154Z,43.00
2018-05-10T05:14:53.888Z,47.00
2018-05-10T05:15:54.648Z,47.00
2018-05-10T05:16:55.324Z,48.00
2018-05-10T05:17:56.045Z,45.00
2018-05-10T05:18:56.763Z,41.00
2018-05-10T05:19:57.483Z,43.00
2018-05-10T05:20:58.202Z,40.00
2018-05-10T05:21:58.936Z,39.00
2018-05-10T05:22:59.653Z,41.00
2018-05-10T05:24:00.371Z,42.00
2018-05-10T05:25:01.107Z,40.00
2018-05-10T05:26:01.825Z,39.00
2018-05-10T05:27:02.548Z,39.00
2018-05-10T05:28:03.270Z,39.00
2018-05-10T05:29:04.002Z,41.00
2018-05-10T05:30:04.727Z,39.00
2018-05-10T05:31:05.445Z,42.00
2018-05-10T05:32:06.166Z,35.00
2018-05-10T05:33:06.885Z,39.00
2018-05-10T05:34:07.605Z,39.00
2018-05-10T05:35:08.325Z,40.00
2018-05-10T05:36:09.046Z,37.00
2018-05-10T05:37:09.767Z,38.00
2018-05-10T05:38:10.501Z,41.00
2018-05-10T05:39:11.236Z,38.00
2018-05-10T05:40:11.969Z,36.00
2018-05-10T05:41:12.707Z,36.00
2018-05-10T05:42:13.421Z,38.00
2018-05-10T05:43:14.227Z,40.00
2018-05-10T05:44:14.875Z,38.00
2018-05-10T05:45:15.594Z,38.00
2018-05-10T05:46:16.315Z,36.00
2018-05-10T05:47:17.036Z,38.00
2018-05-10T05:48:17.768Z,39.00
2018-05-10T05:49:18.490Z,33.00
2018-05-10T05:50:19.211Z,37.00
2018-05-10T05:51:19.947Z,35.00
2018-05-10T05:52:20.661Z,40.00
2018-05-10T05:53:21.383Z,37.00
2018-05-10T05:54:22.103Z,36.00
2018-05-10T05:55:22.823Z,35.00
2018-05-10T05:56:23.544Z,37.00
2018-05-10T05:57:24.264Z,33.00
2018-05-10T05:58:24.985Z,39.00
2018-05-10T05:59:25.721Z,39.00
2018-05-10T06:00:26.443Z,35.00
2018-05-10T06:01:27.163Z,36.00
2018-05-10T06:02:27.881Z,32.00
2018-05-10T06:03:28.602Z,32.00
2018-05-10T06:04:29.326Z,34.00
2018-05-10T06:05:30.043Z,38.00
2018-05-10T06:06:30.764Z,35.00
2018-05-10T06:07:31.486Z,35.00
2018-05-10T06:08:32.222Z,34.00
2018-05-10T06:09:32.940Z,37.00
2018-05-10T06:10:33.660Z,37.00
2018-05-10T06:11:34.384Z,40.00
2018-05-10T06:12:35.105Z,37.00
2018-05-10T06:13:35.827Z,38.00
2018-05-10T06:14:36.549Z,33.00
2018-05-10T06:15:37.382Z,32.00
2018-05-10T06:16:38.012Z,33.00
2018-05-10T06:17:38.734Z,33.00
2018-05-10T06:18:39.455Z,33.00
2018-05-10T06:19:40.179Z,34.00
2018-05-10T06:20:40.900Z,32.00
2018-05-10T06:21:41.620Z,32.00
2018-05-10T06:22:42.342Z,33.00
2018-05-10T06:23:43.064Z,32.00
2018-05-10T06:24:43.800Z,32.00
2018-05-10T06:25:44.507Z,34.00
2018-05-10T06:26:45.230Z,30.00
2018-05-10T06:27:45.951Z,31.00
2018-05-10T06:28:46.673Z,33.00
2018-05-10T06:29:47.395Z,30.00
2018-05-10T06:30:48.123Z,30.00
2018-05-10T06:31:48.841Z,30.00
2018-05-10T06:32:49.565Z,33.00
2018-05-10T06:33:50.286Z,32.00
2018-05-10T06:34:51.009Z,30.00
2018-05-10T06:35:51.744Z,34.00
2018-05-10T06:36:52.465Z,30.00
2018-05-10T06:37:53.188Z,29.00
2018-05-10T06:38:53.911Z,30.00
2018-05-10T06:39:54.632Z,29.00
2018-05-10T06:40:55.356Z,33.00
2018-05-10T06:41:56.081Z,28.00
2018-05-10T06:42:56.802Z,30.00
2018-05-10T06:43:57.526Z,30.00
2018-05-10T06:44:58.250Z,28.00
2018-05-10T06:45:58.988Z,27.00
2018-05-10T06:46:59.720Z,27.00
2018-05-10T06:48:00.454Z,32.00
2018-05-10T06:49:01.165Z,27.00
2018-05-10T06:50:01.904Z,28.00
2018-05-10T06:51:02.642Z,30.00
2018-05-10T06:52:03.365Z,27.00
2018-05-10T06:53:04.088Z,29.00
2018-05-10T06:54:04.812Z,26.00
2018-05-10T06:55:05.550Z,29.00
2018-05-10T06:56:06.287Z,29.00
2018-05-10T06:57:07.011Z,28.00
2018-05-10T06:58:07.737Z,31.00
2018-05-10T06:59:08.461Z,27.00
2018-05-10T07:00:09.199Z,29.00
2018-05-10T07:01:09.927Z,27.00
2018-05-10T07:02:10.651Z,26.00
2018-05-10T07:03:11.378Z,28.00
2018-05-10T07:04:12.100Z,28.00
2018-05-10T07:05:12.847Z,26.00
2018-05-10T07:06:13.582Z,27.00
2018-05-10T07:07:14.308Z,25.00
2018-05-10T07:08:15.035Z,26.00
2018-05-10T07:09:15.787Z,25.00
2018-05-10T07:10:16.501Z,25.00
2018-05-10T07:11:17.250Z,24.00
2018-05-10T07:12:17.982Z,23.00
2018-05-10T07:13:18.709Z,23.00
2018-05-10T07:14:19.433Z,22.00
2018-05-10T07:15:20.172Z,22.00
2018-05-10T07:16:20.912Z,23.00
2018-05-10T07:17:21.638Z,24.00
2018-05-10T07:18:22.361Z,23.00
2018-05-10T07:19:23.105Z,22.00
2018-05-10T07:20:23.825Z,22.00
2018-05-10T07:21:24.548Z,21.00
2018-05-10T07:22:25.289Z,21.00
2018-05-10T07:23:26.013Z,19.00
2018-05-10T07:24:26.735Z,21.00
2018-05-10T07:25:27.473Z,21.00
2018-05-10T07:26:28.185Z,21.00
2018-05-10T07:27:28.912Z,21.00
2018-05-10T07:28:29.636Z,21.00
2018-05-10T07:29:30.360Z,20.00
2018-05-10T07:30:31.086Z,21.00
2018-05-10T07:31:31.811Z,24.00
2018-05-10T07:32:32.540Z,23.00
2018-05-10T07:33:33.260Z,22.00
2018-05-10T07:34:33.985Z,23.00
2018-05-10T07:35:34.724Z,23.00
2018-05-10T07:36:35.450Z,21.00
2018-05-10T07:37:36.174Z,23.00
2018-05-10T07:38:36.901Z,22.00
2018-05-10T07:39:37.626Z,26.00
2018-05-10T07:40:38.365Z,26.00
2018-05-10T07:41:39.104Z,25.00
2018-05-10T07:42:39.830Z,25.00
2018-05-10T07:43:40.555Z,28.00
2018-05-10T07:44:41.292Z,25.00
2018-05-10T07:45:42.019Z,25.00
2018-05-10T07:46:42.757Z,25.00
2018-05-10T07:47:43.499Z,27.00
2018-05-10T07:48:44.224Z,24.00
2018-05-10T07:49:44.962Z,27.00
2018-05-10T07:50:45.688Z,28.00
2018-05-10T07:51:46.414Z,27.00
2018-05-10T07:52:47.140Z,26.00
2018-05-10T07:53:47.865Z,29.00
2018-05-10T07:54:48.591Z,29.00
2018-05-10T07:55:49.317Z,31.00
2018-05-10T07:56:50.055Z,27.00
2018-05-10T07:57:50.781Z,27.00
2018-05-10T07:58:51.507Z,25.00
2018-05-10T07:59:52.238Z,23.00
2018-05-10T08:00:52.977Z,26.00
2018-05-10T08:01:53.717Z,25.00
2018-05-10T08:02:54.443Z,23.00
2018-05-10T08:03:55.172Z,25.00
2018-05-10T08:04:55.899Z,24.00
2018-05-10T08:05:56.630Z,22.00
2018-05-10T08:06:57.364Z,23.00
2018-05-10T08:07:58.103Z,25.00
2018-05-10T08:08:58.834Z,22.00
2018-05-10T08:09:59.582Z,19.00
2018-05-10T08:11:00.329Z,21.00
2018-05-10T08:12:01.058Z,21.00
2018-05-10T08:13:01.792Z,24.00
2018-05-10T08:14:02.525Z,22.00
2018-05-10T08:15:03.257Z,20.00
2018-05-10T08:16:04.003Z,22.00
2018-05-10T08:17:04.831Z,21.00
2018-05-10T08:18:05.472Z,22.00
2018-05-10T08:19:06.207Z,22.00
2018-05-10T08:20:06.952Z,23.00
2018-05-10T08:21:07.686Z,24.00
2018-05-10T08:22:08.418Z,25.00
2018-05-10T08:23:09.163Z,23.00
2018-05-10T08:24:09.908Z,23.00
2018-05-10T08:25:10.629Z,25.00
2018-05-10T08:26:11.362Z,26.00
2018-05-10T08:27:12.095Z,24.00
2018-05-10T08:28:12.827Z,23.00
2018-05-10T08:29:13.559Z,22.00
2018-05-10T08:30:14.340Z,22.00
2018-05-10T08:31:15.025Z,23.00
2018-05-10T08:32:15.759Z,23.00
2018-05-10T08:33:16.491Z,22.00
2018-05-10T08:34:17.239Z,20.00
2018-05-10T08:35:17.984Z,24.00
2018-05-10T08:36:18.719Z,23.00
2018-05-10T08:37:19.447Z,21.00
2018-05-10T08:38:20.179Z,20.00
2018-05-10T08:39:20.922Z,20.00
2018-05-10T08:40:21.651Z,21.00
2018-05-10T08:41:22.387Z,22.00
2018-05-10T08:42:23.117Z,19.00
2018-05-10T08:43:23.848Z,20.00
2018-05-10T08:44:24.581Z,20.00
2018-05-10T08:45:25.311Z,19.00
2018-05-10T08:46:26.046Z,19.00
2018-05-10T08:47:26.778Z,17.00
2018-05-10T08:48:27.528Z,20.00
2018-05-10T08:49:28.260Z,17.00
2018-05-10T08:50:29.008Z,18.00
2018-05-10T08:51:29.768Z,17.00
2018-05-10T08:52:30.504Z,18.00
2018-05-10T08:53:31.247Z,15.00
2018-05-10T08:54:31.983Z,16.00
2018-05-10T08:55:32.728Z,16.00
2018-05-10T08:56:33.461Z,15.00
2018-05-10T08:57:34.196Z,15.00
2018-05-10T08:58:34.929Z,14.00
2018-05-10T08:59:35.676Z,13.00
2018-05-10T09:00:36.425Z,14.00
2018-05-10T09:01:37.160Z,13.00
2018-05-10T09:02:37.909Z,15.00
2018-05-10T09:03:38.657Z,13.00
2018-05-10T09:04:39.396Z,13.00
2018-05-10T09:05:40.124Z,11.00
2018-05-10T09:06:40.860Z,11.00
2018-05-10T09:07:41.603Z,10.00
2018-05-10T09:08:42.337Z,10.00
2018-05-10T09:09:43.069Z,12.00
2018-05-10T09:10:43.803Z,10.00
2018-05-10T09:11:44.552Z,11.00
2018-05-10T09:12:45.288Z,9.00
2018-05-10T09:13:46.019Z,10.00
2018-05-10T09:14:46.754Z,12.00
2018-05-10T09:15:47.488Z,10.00
2018-05-10T09:16:48.216Z,9.00
2018-05-10T09:17:48.949Z,10.00
2018-05-10T09:18:49.695Z,11.00
2018-05-10T09:19:50.428Z,10.00
2018-05-10T09:20:51.163Z,11.00
2018-05-10T09:21:51.896Z,9.00
2018-05-10T09:22:52.625Z,10.00
2018-05-10T09:23:53.357Z,10.00
2018-05-10T09:24:54.103Z,10.00
2018-05-10T09:25:54.912Z,9.00
2018-05-10T09:26:55.569Z,10.00
2018-05-10T09:27:56.304Z,10.00
2018-05-10T09:28:57.053Z,13.00
2018-05-10T09:29:57.780Z,10.00
2018-05-10T09:30:58.513Z,11.00
2018-05-10T09:31:59.247Z,10.00
2018-05-10T09:32:59.978Z,10.00
2018-05-10T09:34:00.710Z,11.00
2018-05-10T09:35:01.459Z,13.00
2018-05-10T09:36:02.185Z,10.00
2018-05-10T09:37:02.915Z,12.00
2018-05-10T09:38:03.647Z,12.00
2018-05-10T09:39:04.374Z,9.00
2018-05-10T09:40:05.103Z,10.00
2018-05-10T09:41:05.850Z,13.00
2018-05-10T09:42:06.580Z,13.00
2018-05-10T09:43:07.323Z,9.00
2018-05-10T09:44:08.054Z,10.00
2018-05-10T09:45:08.781Z,14.00
2018-05-10T09:46:09.520Z,13.00
2018-05-10T09:47:10.248Z,11.00
2018-05-10T09:48:10.979Z,13.00
2018-05-10T09:49:11.709Z,12.00
2018-05-10T09:50:12.440Z,10.00
2018-05-10T09:51:13.169Z,13.00
2018-05-10T09:52:13.899Z,12.00
2018-05-10T09:53:14.626Z,13.00
2018-05-10T09:54:15.358Z,12.00
2018-05-10T09:55:16.100Z,11.00
2018-05-10T09:56:16.829Z,11.00
2018-05-10T09:57:17.572Z,11.00
2018-05-10T09:58:18.302Z,10.00
2018-05-10T09:59:19.033Z,10.00
2018-05-10T10:00:19.760Z,10.00
2018-05-10T10:01:20.499Z,10.00
2018-05-10T10:02:21.227Z,10.00
2018-05-10T10:03:21.954Z,11.00
2018-05-10T10:04:22.683Z,10.00
2018-05-10T10:05:23.412Z,10.00
2018-05-10T10:06:24.147Z,10.00
2018-05-10T10:07:24.873Z,11.00
2018-05-10T10:08:25.599Z,11.00
2018-05-10T10:09:26.324Z,10.00
2018-05-10T10:10:27.049Z,11.00
2018-05-10T10:11:27.775Z,13.00
2018-05-10T10:12:28.500Z,12.00
2018-05-10T10:13:29.224Z,12.00
2018-05-10T10:14:29.941Z,13.00
2018-05-10T10:15:30.665Z,11.00
2018-05-10T10:16:31.388Z,13.00
2018-05-10T10:17:32.120Z,12.00
2018-05-10T10:18:32.850Z,12.00
2018-05-10T10:19:33.574Z,12.00
2018-05-10T10:20:34.297Z,13.00
2018-05-10T10:21:35.036Z,10.00
2018-05-10T10:22:35.758Z,11.00
2018-05-10T10:23:36.481Z,14.00
2018-05-10T10:24:37.212Z,14.00
2018-05-10T10:25:37.947Z,13.00
2018-05-10T10:26:38.665Z,11.00
2018-05-10T10:27:39.390Z,15.00
2018-05-10T10:28:40.115Z,13.00
2018-05-10T10:29:40.843Z,15.00
2018-05-10T10:30:41.572Z,15.00
2018-05-10T10:31:42.293Z,16.00
2018-05-10T10:32:43.019Z,12.00
2018-05-10T10:33:43.741Z,15.00
2018-05-10T10:34:44.467Z,11.00
2018-05-10T10:35:45.191Z,15.00
2018-05-10T10:36:45.918Z,12.00
2018-05-10T10:37:46.639Z,15.00
2018-05-10T10:38:47.362Z,13.00
2018-05-10T10:39:48.085Z,13.00
2018-05-10T10:40:48.809Z,13.00
2018-05-10T10:41:49.533Z,14.00
2018-05-10T10:42:50.260Z,14.00
2018-05-10T10:43:50.978Z,15.00
2018-05-10T10:44:51.704Z,18.00
2018-05-10T10:45:52.436Z,18.00
2018-05-10T10:46:53.157Z,19.00
2018-05-10T10:47:53.893Z,17.00
2018-05-10T10:48:54.615Z,18.00
2018-05-10T10:49:55.338Z,16.00
2018-05-10T10:50:56.059Z,19.00
2018-05-10T10:51:56.794Z,19.00
2018-05-10T10:52:57.623Z,17.00
2018-05-10T10:53:58.346Z,17.00
2018-05-10T10:54:58.989Z,18.00
2018-05-10T10:55:59.711Z,17.00
2018-05-10T10:57:00.433Z,20.00
2018-05-10T10:58:01.155Z,18.00
2018-05-10T10:59:01.876Z,18.00
2018-05-10T11:00:02.688Z,20.00
2018-05-10T11:01:03.320Z,18.00
2018-05-10T11:02:04.043Z,21.00
2018-05-10T11:03:04.764Z,19.00
2018-05-10T11:04:05.485Z,18.00
2018-05-10T11:05:06.207Z,18.00
2018-05-10T11:06:06.932Z,19.00
2018-05-10T11:07:07.666Z,18.00
2018-05-10T11:08:08.401Z,17.00
2018-05-10T11:09:09.142Z,21.00
2018-05-10T11:10:09.842Z,27.00
2018-05-10T11:11:10.565Z,20.00
2018-05-10T11:12:11.284Z,17.00
2018-05-10T11:13:12.005Z,19.00
2018-05-10T11:14:12.731Z,20.00
2018-05-10T11:15:13.463Z,21.00
2018-05-10T11:16:14.197Z,20.00
2018-05-10T11:17:14.922Z,18.00
2018-05-10T11:18:15.656Z,21.00
2018-05-10T11:19:16.389Z,21.00
2018-05-10T11:20:17.109Z,19.00
2018-05-10T11:21:17.829Z,19.00
2018-05-10T11:22:18.551Z,15.00
2018-05-10T11:23:19.271Z,18.00
2018-05-10T11:24:20.006Z,18.00
2018-05-10T11:25:20.764Z,17.00
2018-05-10T11:26:21.464Z,18.00
2018-05-10T11:27:22.229Z,17.00
2018-05-10T11:28:22.911Z,18.00
2018-05-10T11:29:23.632Z,16.00
2018-05-10T11:30:24.355Z,16.00
2018-05-10T11:31:25.078Z,17.00
2018-05-10T11:32:25.799Z,15.00
2018-05-10T11:33:26.520Z,17.00
2018-05-10T11:34:27.257Z,17.00
2018-05-10T11:35:27.978Z,18.00
2018-05-10T11:36:28.703Z,20.00
2018-05-10T11:37:29.437Z,17.00
2018-05-10T11:38:30.160Z,19.00
2018-05-10T11:39:30.882Z,18.00
2018-05-10T11:40:31.602Z,18.00
2018-05-10T11:41:32.325Z,19.00
2018-05-10T11:42:33.046Z,20.00
2018-05-10T11:43:33.769Z,17.00
2018-05-10T11:44:34.618Z,18.00
2018-05-10T11:45:35.224Z,21.00
2018-05-10T11:46:35.960Z,20.00
2018-05-10T11:47:36.681Z,16.00
2018-05-10T11:48:37.468Z,17.00
2018-05-10T11:49:38.125Z,15.00
2018-05-10T11:50:38.860Z,19.00
2018-05-10T11:51:39.584Z,19.00
2018-05-10T11:52:40.321Z,18.00
2018-05-10T11:53:41.042Z,19.00
2018-05-10T11:54:41.763Z,20.00
2018-05-10T11:55:42.484Z,18.00
2018-05-10T11:56:43.206Z,19.00
2018-05-10T11:57:43.928Z,18.00
2018-05-10T11:58:44.649Z,22.00
2018-05-10T11:59:45.371Z,18.00
2018-05-10T12:00:46.092Z,17.00
2018-05-10T12:01:46.813Z,19.00
2018-05-10T12:02:47.550Z,20.00
2018-05-10T12:03:48.272Z,16.00
2018-05-10T12:04:48.995Z,20.00
2018-05-10T12:05:49.727Z,18.00
2018-05-10T12:06:50.449Z,17.00
2018-05-10T12:07:51.169Z,17.00
2018-05-10T12:08:51.891Z,17.00
2018-05-10T12:09:52.611Z,21.00
2018-05-10T12:10:53.329Z,16.00
2018-05-10T12:11:54.049Z,16.00
2018-05-10T12:12:54.775Z,15.00
2018-05-10T12:13:55.507Z,16.00
2018-05-10T12:14:56.227Z,16.00
2018-05-10T12:15:56.963Z,17.00
2018-05-10T12:16:57.682Z,11.00
2018-05-10T12:17:58.402Z,14.00
2018-05-10T12:18:59.136Z,15.00
2018-05-10T12:19:59.857Z,13.00
2018-05-10T12:21:00.577Z,13.00
2018-05-10T12:22:01.298Z,14.00
2018-05-10T12:23:02.019Z,13.00
2018-05-10T12:24:02.754Z,14.00
2018-05-10T12:25:03.475Z,12.00
2018-05-10T12:26:04.195Z,12.00
2018-05-10T12:27:04.918Z,13.00
2018-05-10T12:28:05.638Z,9.00
2018-05-10T12:29:06.361Z,11.00
2018-05-10T12:30:07.086Z,10.00
2018-05-10T12:31:07.807Z,10.00
2018-05-10T12:32:08.524Z,9.00
2018-05-10T12:33:09.245Z,10.00
2018-05-10T12:34:09.969Z,9.00
2018-05-10T12:35:10.686Z,11.00
2018-05-10T12:36:11.420Z,10.00
2018-05-10T12:37:12.141Z,10.00
2018-05-10T12:38:12.862Z,10.00
2018-05-10T12:39:13.580Z,8.00
2018-05-10T12:40:14.300Z,10.00
2018-05-10T12:41:15.022Z,8.00
2018-05-10T12:42:15.741Z,9.00
2018-05-10T12:43:16.460Z,9.00
2018-05-10T12:44:17.180Z,8.00
2018-05-10T12:45:17.901Z,10.00
2018-05-10T12:46:18.623Z,10.00
2018-05-10T12:47:19.342Z,8.00
2018-05-10T12:48:20.064Z,10.00
2018-05-10T12:49:20.817Z,10.00
2018-05-10T12:50:21.539Z,10.00
2018-05-10T12:51:22.272Z,11.00
2018-05-10T12:52:23.018Z,11.00
2018-05-10T12:53:23.759Z,10.00
2018-05-10T12:54:24.544Z,10.00
2018-05-10T12:55:25.268Z,9.00
2018-05-10T12:56:26.175Z,9.00
2018-05-10T12:57:26.741Z,9.00
2018-05-10T12:58:27.476Z,10.00
2018-05-10T12:59:28.239Z,11.00
2018-05-10T13:00:28.991Z,10.00
2018-05-10T13:01:29.732Z,12.00
2018-05-10T13:02:30.457Z,10.00
2018-05-10T13:03:31.207Z,13.00